sensor_id;sensor_type;location;lat;lon;timestamp;temperature;humidity
52769;DHT22;40471;44.534;18.644;2023-08-20T00:01:04;24.20;99.90
52769;DHT22;40471;44.534;18.644;2023-08-20T00:03:30;24.10;99.90
52769;DHT22;40471;44.534;18.644;2023-08-20T00:05:55;24.00;99.90
52769;DHT22;40471;44.534;18.644;2023-08-20T00:08:21;24.00;99.90
52769;DHT22;40471;44.534;18.644;2023-08-20T00:10:47;23.90;99.90
52769;DHT22;40471;44.534;18.644;2023-08-20T00:13:12;23.80;99.90
52769;DHT22;40471;44.534;18.644;2023-08-20T00:15:38;23.80;99.90
52769;DHT22;40471;44.534;18.644;2023-08-20T00:18:04;23.80;99.90
52769;DHT22;40471;44.534;18.644;2023-08-20T00:20:30;23.80;99.90
52769;DHT22;40471;44.534;18.644;2023-08-20T00:22:59;23.80;99.90
52769;DHT22;40471;44.534;18.644;2023-08-20T00:25:25;23.80;99.90
52769;DHT22;40471;44.534;18.644;2023-08-20T00:27:50;23.80;99.90
52769;DHT22;40471;44.534;18.644;2023-08-20T00:30:16;23.70;99.90
52769;DHT22;40471;44.534;18.644;2023-08-20T00:32:42;23.70;99.90
52769;DHT22;40471;44.534;18.644;2023-08-20T00:35:07;23.70;99.90
52769;DHT22;40471;44.534;18.644;2023-08-20T00:37:33;23.50;99.90
52769;DHT22;40471;44.534;18.644;2023-08-20T00:39:59;23.50;99.90
52769;DHT22;40471;44.534;18.644;2023-08-20T00:42:25;23.50;99.90
52769;DHT22;40471;44.534;18.644;2023-08-20T00:44:53;23.40;99.90
52769;DHT22;40471;44.534;18.644;2023-08-20T00:47:19;23.30;99.90
52769;DHT22;40471;44.534;18.644;2023-08-20T00:49:45;23.20;99.90
52769;DHT22;40471;44.534;18.644;2023-08-20T00:52:11;23.30;99.90
52769;DHT22;40471;44.534;18.644;2023-08-20T00:54:39;23.30;99.90
52769;DHT22;40471;44.534;18.644;2023-08-20T00:57:05;23.30;99.90
52769;DHT22;40471;44.534;18.644;2023-08-20T00:59:32;23.30;99.90
52769;DHT22;40471;44.534;18.644;2023-08-20T01:01:57;23.30;99.90
52769;DHT22;40471;44.534;18.644;2023-08-20T01:04:23;23.40;99.90
52769;DHT22;40471;44.534;18.644;2023-08-20T01:06:55;23.40;99.90
52769;DHT22;40471;44.534;18.644;2023-08-20T01:10:03;23.40;99.90
52769;DHT22;40471;44.534;18.644;2023-08-20T01:12:19;23.40;99.90
52769;DHT22;40471;44.534;18.644;2023-08-20T01:14:45;23.30;99.90
52769;DHT22;40471;44.534;18.644;2023-08-20T01:17:10;23.30;99.90
52769;DHT22;40471;44.534;18.644;2023-08-20T01:19:36;23.20;99.90
52769;DHT22;40471;44.534;18.644;2023-08-20T01:29:45;23.10;99.90
52769;DHT22;40471;44.534;18.644;2023-08-20T01:32:11;23.10;99.90
52769;DHT22;40471;44.534;18.644;2023-08-20T01:34:37;23.10;99.90
52769;DHT22;40471;44.534;18.644;2023-08-20T01:37:03;23.00;99.90
52769;DHT22;40471;44.534;18.644;2023-08-20T01:39:29;22.90;99.90
52769;DHT22;40471;44.534;18.644;2023-08-20T01:41:54;22.90;99.90
52769;DHT22;40471;44.534;18.644;2023-08-20T01:44:20;22.90;99.90
52769;DHT22;40471;44.534;18.644;2023-08-20T01:46:45;22.90;99.90
52769;DHT22;40471;44.534;18.644;2023-08-20T01:49:11;22.70;99.90
52769;DHT22;40471;44.534;18.644;2023-08-20T01:51:37;22.70;99.90
52769;DHT22;40471;44.534;18.644;2023-08-20T01:54:02;22.70;99.90
52769;DHT22;40471;44.534;18.644;2023-08-20T01:56:28;22.70;99.90
52769;DHT22;40471;44.534;18.644;2023-08-20T01:58:53;22.80;99.90
52769;DHT22;40471;44.534;18.644;2023-08-20T02:01:19;22.80;99.90
52769;DHT22;40471;44.534;18.644;2023-08-20T02:03:45;22.80;99.90
52769;DHT22;40471;44.534;18.644;2023-08-20T02:06:11;22.80;99.90
52769;DHT22;40471;44.534;18.644;2023-08-20T02:08:36;22.80;99.90
52769;DHT22;40471;44.534;18.644;2023-08-20T02:11:02;22.70;99.90
52769;DHT22;40471;44.534;18.644;2023-08-20T02:13:28;22.70;99.90
52769;DHT22;40471;44.534;18.644;2023-08-20T02:16:00;22.70;99.90
52769;DHT22;40471;44.534;18.644;2023-08-20T02:18:26;22.70;99.90
52769;DHT22;40471;44.534;18.644;2023-08-20T02:20:51;22.60;99.90
52769;DHT22;40471;44.534;18.644;2023-08-20T02:23:17;22.60;99.90
52769;DHT22;40471;44.534;18.644;2023-08-20T02:25:43;22.50;99.90
52769;DHT22;40471;44.534;18.644;2023-08-20T02:28:09;22.60;99.90
52769;DHT22;40471;44.534;18.644;2023-08-20T02:30:39;22.60;99.90
52769;DHT22;40471;44.534;18.644;2023-08-20T02:33:05;22.60;99.90
52769;DHT22;40471;44.534;18.644;2023-08-20T02:35:30;22.90;99.90
52769;DHT22;40471;44.534;18.644;2023-08-20T02:37:56;22.40;99.90
52769;DHT22;40471;44.534;18.644;2023-08-20T02:40:22;24.10;99.90
52769;DHT22;40471;44.534;18.644;2023-08-20T02:42:47;22.40;99.90
52769;DHT22;40471;44.534;18.644;2023-08-20T02:45:13;22.40;99.90
52769;DHT22;40471;44.534;18.644;2023-08-20T02:47:38;22.40;99.90
52769;DHT22;40471;44.534;18.644;2023-08-20T02:50:04;22.40;99.90
52769;DHT22;40471;44.534;18.644;2023-08-20T02:52:30;22.50;99.90
52769;DHT22;40471;44.534;18.644;2023-08-20T02:54:55;22.30;99.90
52769;DHT22;40471;44.534;18.644;2023-08-20T02:57:21;22.20;99.90
52769;DHT22;40471;44.534;18.644;2023-08-20T02:59:47;22.30;99.90
52769;DHT22;40471;44.534;18.644;2023-08-20T03:02:12;22.20;99.90
52769;DHT22;40471;44.534;18.644;2023-08-20T03:04:38;22.20;99.90
52769;DHT22;40471;44.534;18.644;2023-08-20T03:07:03;22.30;99.90
52769;DHT22;40471;44.534;18.644;2023-08-20T03:09:29;22.20;99.90
52769;DHT22;40471;44.534;18.644;2023-08-20T03:11:55;22.20;99.90
52769;DHT22;40471;44.534;18.644;2023-08-20T03:14:21;22.20;99.90
52769;DHT22;40471;44.534;18.644;2023-08-20T03:16:46;22.10;99.90
52769;DHT22;40471;44.534;18.644;2023-08-20T03:19:14;22.00;99.90
52769;DHT22;40471;44.534;18.644;2023-08-20T03:21:40;21.80;99.90
52769;DHT22;40471;44.534;18.644;2023-08-20T03:24:05;21.80;99.90
52769;DHT22;40471;44.534;18.644;2023-08-20T03:26:31;21.60;99.90
52769;DHT22;40471;44.534;18.644;2023-08-20T03:28:57;21.70;99.90
52769;DHT22;40471;44.534;18.644;2023-08-20T03:31:24;21.70;99.90
52769;DHT22;40471;44.534;18.644;2023-08-20T03:33:49;21.80;99.90
52769;DHT22;40471;44.534;18.644;2023-08-20T03:36:15;21.70;99.90
52769;DHT22;40471;44.534;18.644;2023-08-20T03:38:40;21.60;99.90
52769;DHT22;40471;44.534;18.644;2023-08-20T03:41:06;21.80;99.90
52769;DHT22;40471;44.534;18.644;2023-08-20T03:43:32;21.80;99.90
52769;DHT22;40471;44.534;18.644;2023-08-20T03:45:57;21.80;99.90
52769;DHT22;40471;44.534;18.644;2023-08-20T03:48:23;21.90;99.90
52769;DHT22;40471;44.534;18.644;2023-08-20T03:50:48;21.90;99.90
52769;DHT22;40471;44.534;18.644;2023-08-20T03:53:14;21.80;99.90
52769;DHT22;40471;44.534;18.644;2023-08-20T03:55:40;21.90;99.90
52769;DHT22;40471;44.534;18.644;2023-08-20T03:58:06;21.90;99.90
52769;DHT22;40471;44.534;18.644;2023-08-20T04:00:32;21.90;99.90
52769;DHT22;40471;44.534;18.644;2023-08-20T04:02:59;21.80;99.90
52769;DHT22;40471;44.534;18.644;2023-08-20T04:05:25;21.80;99.90
52769;DHT22;40471;44.534;18.644;2023-08-20T04:07:50;21.80;99.90
52769;DHT22;40471;44.534;18.644;2023-08-20T04:10:16;21.80;99.90
52769;DHT22;40471;44.534;18.644;2023-08-20T04:12:41;21.80;99.90
52769;DHT22;40471;44.534;18.644;2023-08-20T04:15:07;21.80;99.90
52769;DHT22;40471;44.534;18.644;2023-08-20T04:17:32;21.90;99.90
52769;DHT22;40471;44.534;18.644;2023-08-20T04:19:58;22.00;99.90
52769;DHT22;40471;44.534;18.644;2023-08-20T04:22:24;22.10;99.90
52769;DHT22;40471;44.534;18.644;2023-08-20T04:24:50;22.10;99.90
52769;DHT22;40471;44.534;18.644;2023-08-20T04:27:16;22.10;99.90
52769;DHT22;40471;44.534;18.644;2023-08-20T04:29:41;22.20;99.90
52769;DHT22;40471;44.534;18.644;2023-08-20T04:32:07;22.20;99.90
52769;DHT22;40471;44.534;18.644;2023-08-20T04:34:32;22.30;99.90
52769;DHT22;40471;44.534;18.644;2023-08-20T04:36:58;22.40;99.90
52769;DHT22;40471;44.534;18.644;2023-08-20T04:39:24;22.40;99.90
52769;DHT22;40471;44.534;18.644;2023-08-20T04:41:49;22.60;99.90
52769;DHT22;40471;44.534;18.644;2023-08-20T04:44:15;22.60;99.90
52769;DHT22;40471;44.534;18.644;2023-08-20T04:46:41;22.60;99.90
52769;DHT22;40471;44.534;18.644;2023-08-20T04:49:07;23.10;99.90
52769;DHT22;40471;44.534;18.644;2023-08-20T04:51:33;22.80;99.90
52769;DHT22;40471;44.534;18.644;2023-08-20T04:53:58;23.50;99.90
52769;DHT22;40471;44.534;18.644;2023-08-20T04:56:24;23.30;99.90
52769;DHT22;40471;44.534;18.644;2023-08-20T04:58:49;23.80;99.90
52769;DHT22;40471;44.534;18.644;2023-08-20T05:01:15;23.90;99.90
52769;DHT22;40471;44.534;18.644;2023-08-20T05:03:40;24.40;99.90
52769;DHT22;40471;44.534;18.644;2023-08-20T05:06:06;24.80;99.90
52769;DHT22;40471;44.534;18.644;2023-08-20T05:08:32;25.00;99.90
52769;DHT22;40471;44.534;18.644;2023-08-20T05:10:57;25.10;99.90
52769;DHT22;40471;44.534;18.644;2023-08-20T05:13:23;25.30;99.90
52769;DHT22;40471;44.534;18.644;2023-08-20T05:15:49;25.60;99.90
52769;DHT22;40471;44.534;18.644;2023-08-20T05:18:18;26.00;99.90
52769;DHT22;40471;44.534;18.644;2023-08-20T05:20:43;26.40;99.90
52769;DHT22;40471;44.534;18.644;2023-08-20T05:23:09;26.60;99.90
52769;DHT22;40471;44.534;18.644;2023-08-20T05:25:34;26.80;99.90
52769;DHT22;40471;44.534;18.644;2023-08-20T05:28:00;26.90;99.90
52769;DHT22;40471;44.534;18.644;2023-08-20T05:30:26;27.10;99.90
52769;DHT22;40471;44.534;18.644;2023-08-20T05:32:52;26.90;99.90
52769;DHT22;40471;44.534;18.644;2023-08-20T05:35:17;28.60;99.90
52769;DHT22;40471;44.534;18.644;2023-08-20T05:37:43;28.70;99.90
52769;DHT22;40471;44.534;18.644;2023-08-20T05:40:09;29.70;99.90
52769;DHT22;40471;44.534;18.644;2023-08-20T05:42:35;29.60;99.90
52769;DHT22;40471;44.534;18.644;2023-08-20T05:45:00;30.70;99.90
52769;DHT22;40471;44.534;18.644;2023-08-20T05:47:26;31.50;99.90
52769;DHT22;40471;44.534;18.644;2023-08-20T05:49:52;32.50;99.90
52769;DHT22;40471;44.534;18.644;2023-08-20T05:52:17;33.50;99.90
52769;DHT22;40471;44.534;18.644;2023-08-20T05:54:43;33.40;99.90
52769;DHT22;40471;44.534;18.644;2023-08-20T05:57:08;32.60;99.90
52769;DHT22;40471;44.534;18.644;2023-08-20T05:59:34;33.00;99.90
52769;DHT22;40471;44.534;18.644;2023-08-20T06:02:00;33.30;99.90
52769;DHT22;40471;44.534;18.644;2023-08-20T06:04:26;32.80;99.90
52769;DHT22;40471;44.534;18.644;2023-08-20T06:06:52;33.00;99.90
52769;DHT22;40471;44.534;18.644;2023-08-20T06:09:17;32.30;99.90
52769;DHT22;40471;44.534;18.644;2023-08-20T06:11:43;32.30;99.90
52769;DHT22;40471;44.534;18.644;2023-08-20T06:14:08;31.30;99.90
52769;DHT22;40471;44.534;18.644;2023-08-20T06:16:34;30.90;99.90
52769;DHT22;40471;44.534;18.644;2023-08-20T06:18:59;30.60;99.90
52769;DHT22;40471;44.534;18.644;2023-08-20T06:21:25;31.10;99.90
52769;DHT22;40471;44.534;18.644;2023-08-20T06:23:51;30.20;99.90
52769;DHT22;40471;44.534;18.644;2023-08-20T06:26:19;30.50;99.90
52769;DHT22;40471;44.534;18.644;2023-08-20T06:28:45;30.60;99.90
52769;DHT22;40471;44.534;18.644;2023-08-20T06:31:11;29.90;99.90
52769;DHT22;40471;44.534;18.644;2023-08-20T06:33:37;29.90;99.90
52769;DHT22;40471;44.534;18.644;2023-08-20T06:36:03;30.00;99.90
52769;DHT22;40471;44.534;18.644;2023-08-20T06:38:29;30.90;99.90
52769;DHT22;40471;44.534;18.644;2023-08-20T06:40:55;30.90;99.90
52769;DHT22;40471;44.534;18.644;2023-08-20T06:43:21;31.60;99.90
52769;DHT22;40471;44.534;18.644;2023-08-20T06:45:46;32.10;99.90
52769;DHT22;40471;44.534;18.644;2023-08-20T06:48:12;32.00;99.90
52769;DHT22;40471;44.534;18.644;2023-08-20T06:50:38;32.20;99.90
52769;DHT22;40471;44.534;18.644;2023-08-20T06:53:03;31.60;99.90
52769;DHT22;40471;44.534;18.644;2023-08-20T06:55:30;32.00;99.90
52769;DHT22;40471;44.534;18.644;2023-08-20T06:57:56;32.60;99.90
52769;DHT22;40471;44.534;18.644;2023-08-20T07:00:21;33.10;99.90
52769;DHT22;40471;44.534;18.644;2023-08-20T07:02:47;33.50;99.90
52769;DHT22;40471;44.534;18.644;2023-08-20T07:05:13;33.50;99.90
52769;DHT22;40471;44.534;18.644;2023-08-20T07:07:40;33.70;99.90
52769;DHT22;40471;44.534;18.644;2023-08-20T07:10:06;33.60;99.60
52769;DHT22;40471;44.534;18.644;2023-08-20T07:12:31;33.60;99.80
52769;DHT22;40471;44.534;18.644;2023-08-20T07:14:57;33.10;99.90
52769;DHT22;40471;44.534;18.644;2023-08-20T07:17:23;32.60;99.90
52769;DHT22;40471;44.534;18.644;2023-08-20T07:19:48;31.40;99.90
52769;DHT22;40471;44.534;18.644;2023-08-20T07:22:14;30.60;99.90
52769;DHT22;40471;44.534;18.644;2023-08-20T07:24:39;31.80;99.90
52769;DHT22;40471;44.534;18.644;2023-08-20T07:27:06;32.10;99.90
52769;DHT22;40471;44.534;18.644;2023-08-20T07:29:36;33.60;99.90
52769;DHT22;40471;44.534;18.644;2023-08-20T07:32:02;34.70;98.30
52769;DHT22;40471;44.534;18.644;2023-08-20T07:34:28;36.50;97.30
52769;DHT22;40471;44.534;18.644;2023-08-20T07:36:56;37.00;95.30
52769;DHT22;40471;44.534;18.644;2023-08-20T07:39:22;36.80;93.20
52769;DHT22;40471;44.534;18.644;2023-08-20T07:41:47;37.50;91.90
52769;DHT22;40471;44.534;18.644;2023-08-20T07:44:13;37.90;90.20
52769;DHT22;40471;44.534;18.644;2023-08-20T07:46:39;37.80;90.70
52769;DHT22;40471;44.534;18.644;2023-08-20T07:49:04;38.10;88.60
52769;DHT22;40471;44.534;18.644;2023-08-20T07:51:30;37.30;88.20
52769;DHT22;40471;44.534;18.644;2023-08-20T07:53:56;36.80;89.50
52769;DHT22;40471;44.534;18.644;2023-08-20T07:56:23;34.90;91.50
52769;DHT22;40471;44.534;18.644;2023-08-20T07:58:49;36.40;89.70
52769;DHT22;40471;44.534;18.644;2023-08-20T08:01:14;35.80;89.80
52769;DHT22;40471;44.534;18.644;2023-08-20T08:03:40;35.10;90.80
52769;DHT22;40471;44.534;18.644;2023-08-20T08:06:06;34.80;91.60
52769;DHT22;40471;44.534;18.644;2023-08-20T08:08:31;34.60;94.20
52769;DHT22;40471;44.534;18.644;2023-08-20T08:10:57;35.80;92.70
52769;DHT22;40471;44.534;18.644;2023-08-20T08:13:23;36.50;91.20
52769;DHT22;40471;44.534;18.644;2023-08-20T08:15:49;36.80;89.70
52769;DHT22;40471;44.534;18.644;2023-08-20T08:18:15;37.40;89.60
52769;DHT22;40471;44.534;18.644;2023-08-20T08:20:41;36.30;89.30
52769;DHT22;40471;44.534;18.644;2023-08-20T08:23:07;36.30;90.70
52769;DHT22;40471;44.534;18.644;2023-08-20T08:25:35;36.20;90.60
52769;DHT22;40471;44.534;18.644;2023-08-20T08:28:00;35.60;90.60
52769;DHT22;40471;44.534;18.644;2023-08-20T08:30:26;36.90;89.90
52769;DHT22;40471;44.534;18.644;2023-08-20T08:32:52;37.50;89.10
52769;DHT22;40471;44.534;18.644;2023-08-20T08:35:18;37.80;86.70
52769;DHT22;40471;44.534;18.644;2023-08-20T08:37:43;37.90;85.60
52769;DHT22;40471;44.534;18.644;2023-08-20T08:40:09;38.30;85.60
52769;DHT22;40471;44.534;18.644;2023-08-20T08:42:35;38.10;85.70
52769;DHT22;40471;44.534;18.644;2023-08-20T08:45:01;37.90;84.70
52769;DHT22;40471;44.534;18.644;2023-08-20T08:47:27;37.70;86.50
52769;DHT22;40471;44.534;18.644;2023-08-20T08:49:54;37.50;85.00
52769;DHT22;40471;44.534;18.644;2023-08-20T08:52:21;37.60;84.50
52769;DHT22;40471;44.534;18.644;2023-08-20T08:54:47;37.80;83.90
52769;DHT22;40471;44.534;18.644;2023-08-20T08:57:14;37.90;83.80
52769;DHT22;40471;44.534;18.644;2023-08-20T08:59:39;38.00;83.80
52769;DHT22;40471;44.534;18.644;2023-08-20T09:02:07;38.30;84.40
52769;DHT22;40471;44.534;18.644;2023-08-20T09:04:33;38.70;82.20
52769;DHT22;40471;44.534;18.644;2023-08-20T09:06:59;39.10;81.00
52769;DHT22;40471;44.534;18.644;2023-08-20T09:09:26;38.80;80.50
52769;DHT22;40471;44.534;18.644;2023-08-20T09:11:54;38.90;80.90
52769;DHT22;40471;44.534;18.644;2023-08-20T09:14:20;38.80;80.70
52769;DHT22;40471;44.534;18.644;2023-08-20T09:16:47;39.10;80.20
52769;DHT22;40471;44.534;18.644;2023-08-20T09:19:12;39.50;79.90
52769;DHT22;40471;44.534;18.644;2023-08-20T09:21:38;39.50;79.30
52769;DHT22;40471;44.534;18.644;2023-08-20T09:24:04;39.50;78.80
52769;DHT22;40471;44.534;18.644;2023-08-20T09:26:31;38.90;79.40
52769;DHT22;40471;44.534;18.644;2023-08-20T09:28:57;38.10;80.30
52769;DHT22;40471;44.534;18.644;2023-08-20T09:31:36;38.30;80.90
52769;DHT22;40471;44.534;18.644;2023-08-20T09:34:02;38.60;80.50
52769;DHT22;40471;44.534;18.644;2023-08-20T09:36:31;38.30;81.00
52769;DHT22;40471;44.534;18.644;2023-08-20T09:38:57;38.40;81.50
52769;DHT22;40471;44.534;18.644;2023-08-20T09:41:23;38.60;81.30
52769;DHT22;40471;44.534;18.644;2023-08-20T09:43:48;38.70;80.90
52769;DHT22;40471;44.534;18.644;2023-08-20T09:46:16;38.90;81.00
52769;DHT22;40471;44.534;18.644;2023-08-20T09:48:42;39.30;80.40
52769;DHT22;40471;44.534;18.644;2023-08-20T09:51:11;39.40;79.10
52769;DHT22;40471;44.534;18.644;2023-08-20T09:53:37;39.20;79.80
52769;DHT22;40471;44.534;18.644;2023-08-20T09:56:15;39.20;79.40
52769;DHT22;40471;44.534;18.644;2023-08-20T09:58:42;39.10;79.10
52769;DHT22;40471;44.534;18.644;2023-08-20T10:01:09;39.30;80.20
52769;DHT22;40471;44.534;18.644;2023-08-20T10:03:35;39.10;80.10
52769;DHT22;40471;44.534;18.644;2023-08-20T10:06:01;38.90;79.10
52769;DHT22;40471;44.534;18.644;2023-08-20T10:08:27;39.10;79.50
52769;DHT22;40471;44.534;18.644;2023-08-20T10:10:53;39.30;78.20
52769;DHT22;40471;44.534;18.644;2023-08-20T10:13:21;38.70;79.20
52769;DHT22;40471;44.534;18.644;2023-08-20T10:15:46;38.40;80.80
52769;DHT22;40471;44.534;18.644;2023-08-20T10:18:12;38.70;80.90
52769;DHT22;40471;44.534;18.644;2023-08-20T10:20:38;39.10;79.40
52769;DHT22;40471;44.534;18.644;2023-08-20T10:23:05;39.20;79.00
52769;DHT22;40471;44.534;18.644;2023-08-20T10:25:31;38.90;78.60
52769;DHT22;40471;44.534;18.644;2023-08-20T10:28:39;39.00;79.50
52769;DHT22;40471;44.534;18.644;2023-08-20T10:31:04;39.30;77.90
52769;DHT22;40471;44.534;18.644;2023-08-20T10:33:32;39.80;78.40
52769;DHT22;40471;44.534;18.644;2023-08-20T10:35:59;40.20;76.80
52769;DHT22;40471;44.534;18.644;2023-08-20T10:38:35;40.60;76.90
52769;DHT22;40471;44.534;18.644;2023-08-20T10:41:00;41.10;75.70
52769;DHT22;40471;44.534;18.644;2023-08-20T10:43:33;41.00;75.50
52769;DHT22;40471;44.534;18.644;2023-08-20T10:46:06;41.10;75.40
52769;DHT22;40471;44.534;18.644;2023-08-20T10:57:41;40.10;75.00
52769;DHT22;40471;44.534;18.644;2023-08-20T11:00:07;39.90;76.00
52769;DHT22;40471;44.534;18.644;2023-08-20T11:02:42;39.90;75.60
52769;DHT22;40471;44.534;18.644;2023-08-20T11:05:18;40.10;73.90
52769;DHT22;40471;44.534;18.644;2023-08-20T11:07:44;40.10;73.80
52769;DHT22;40471;44.534;18.644;2023-08-20T11:10:11;40.10;73.40
52769;DHT22;40471;44.534;18.644;2023-08-20T11:12:38;40.10;73.50
52769;DHT22;40471;44.534;18.644;2023-08-20T11:15:03;40.60;73.60
52769;DHT22;40471;44.534;18.644;2023-08-20T11:17:29;40.90;74.00
52769;DHT22;40471;44.534;18.644;2023-08-20T11:19:57;40.50;73.10
52769;DHT22;40471;44.534;18.644;2023-08-20T11:22:23;39.80;74.20
52769;DHT22;40471;44.534;18.644;2023-08-20T11:24:48;39.20;74.30
52769;DHT22;40471;44.534;18.644;2023-08-20T11:27:17;39.20;75.60
52769;DHT22;40471;44.534;18.644;2023-08-20T11:29:45;39.10;76.40
52769;DHT22;40471;44.534;18.644;2023-08-20T11:32:11;39.00;75.60
52769;DHT22;40471;44.534;18.644;2023-08-20T11:34:36;38.40;75.90
52769;DHT22;40471;44.534;18.644;2023-08-20T11:37:04;38.00;76.00
52769;DHT22;40471;44.534;18.644;2023-08-20T11:39:30;37.70;76.60
52769;DHT22;40471;44.534;18.644;2023-08-20T11:41:56;37.60;76.40
52769;DHT22;40471;44.534;18.644;2023-08-20T11:44:22;38.10;77.50
52769;DHT22;40471;44.534;18.644;2023-08-20T11:46:47;38.50;74.10
52769;DHT22;40471;44.534;18.644;2023-08-20T11:49:16;38.70;71.70
52769;DHT22;40471;44.534;18.644;2023-08-20T11:51:43;39.00;72.70
52769;DHT22;40471;44.534;18.644;2023-08-20T11:54:17;39.40;71.90
52769;DHT22;40471;44.534;18.644;2023-08-20T11:56:46;39.60;69.50
52769;DHT22;40471;44.534;18.644;2023-08-20T11:59:13;39.80;68.80
52769;DHT22;40471;44.534;18.644;2023-08-20T12:01:38;40.10;67.70
52769;DHT22;40471;44.534;18.644;2023-08-20T12:04:05;40.30;66.70
52769;DHT22;40471;44.534;18.644;2023-08-20T12:06:33;40.30;68.10
52769;DHT22;40471;44.534;18.644;2023-08-20T12:09:22;40.30;67.70
52769;DHT22;40471;44.534;18.644;2023-08-20T12:11:48;40.00;67.60
52769;DHT22;40471;44.534;18.644;2023-08-20T12:14:24;40.10;66.90
52769;DHT22;40471;44.534;18.644;2023-08-20T12:16:50;40.30;66.20
52769;DHT22;40471;44.534;18.644;2023-08-20T12:19:19;40.40;63.50
52769;DHT22;40471;44.534;18.644;2023-08-20T12:21:47;40.50;66.50
52769;DHT22;40471;44.534;18.644;2023-08-20T12:24:37;40.90;67.50
52769;DHT22;40471;44.534;18.644;2023-08-20T12:27:04;41.20;66.90
52769;DHT22;40471;44.534;18.644;2023-08-20T12:29:32;41.20;66.40
52769;DHT22;40471;44.534;18.644;2023-08-20T12:32:03;41.20;61.20
52769;DHT22;40471;44.534;18.644;2023-08-20T12:34:35;41.00;62.90
52769;DHT22;40471;44.534;18.644;2023-08-20T12:37:09;41.20;61.80
52769;DHT22;40471;44.534;18.644;2023-08-20T12:39:40;41.10;62.20
52769;DHT22;40471;44.534;18.644;2023-08-20T12:42:15;41.20;61.40
52769;DHT22;40471;44.534;18.644;2023-08-20T12:44:50;41.10;61.90
52769;DHT22;40471;44.534;18.644;2023-08-20T12:47:16;41.30;60.50
52769;DHT22;40471;44.534;18.644;2023-08-20T12:49:42;41.40;61.20
52769;DHT22;40471;44.534;18.644;2023-08-20T12:52:15;41.10;60.60
52769;DHT22;40471;44.534;18.644;2023-08-20T12:54:48;41.00;60.80
52769;DHT22;40471;44.534;18.644;2023-08-20T12:57:28;40.70;59.70
52769;DHT22;40471;44.534;18.644;2023-08-20T12:59:54;40.00;59.80
52769;DHT22;40471;44.534;18.644;2023-08-20T13:02:20;39.70;60.70
52769;DHT22;40471;44.534;18.644;2023-08-20T13:04:48;39.20;60.90
52769;DHT22;40471;44.534;18.644;2023-08-20T13:07:16;39.00;60.20
52769;DHT22;40471;44.534;18.644;2023-08-20T13:09:45;38.40;60.70
52769;DHT22;40471;44.534;18.644;2023-08-20T13:12:16;38.50;62.30
52769;DHT22;40471;44.534;18.644;2023-08-20T13:14:43;38.90;61.50
52769;DHT22;40471;44.534;18.644;2023-08-20T13:17:09;39.30;59.70
52769;DHT22;40471;44.534;18.644;2023-08-20T13:19:35;39.30;59.70
52769;DHT22;40471;44.534;18.644;2023-08-20T13:22:04;38.90;59.80
52769;DHT22;40471;44.534;18.644;2023-08-20T13:24:32;39.00;60.10
52769;DHT22;40471;44.534;18.644;2023-08-20T13:26:58;39.00;59.80
52769;DHT22;40471;44.534;18.644;2023-08-20T13:29:24;38.90;60.90
52769;DHT22;40471;44.534;18.644;2023-08-20T13:31:49;39.00;61.00
52769;DHT22;40471;44.534;18.644;2023-08-20T13:34:17;38.90;60.60
52769;DHT22;40471;44.534;18.644;2023-08-20T13:36:43;38.50;59.80
52769;DHT22;40471;44.534;18.644;2023-08-20T13:39:12;38.30;59.60
52769;DHT22;40471;44.534;18.644;2023-08-20T13:41:39;38.10;59.60
52769;DHT22;40471;44.534;18.644;2023-08-20T13:44:05;38.10;59.40
52769;DHT22;40471;44.534;18.644;2023-08-20T13:46:38;38.20;60.90
52769;DHT22;40471;44.534;18.644;2023-08-20T13:49:06;38.20;61.40
52769;DHT22;40471;44.534;18.644;2023-08-20T13:51:39;38.00;60.80
52769;DHT22;40471;44.534;18.644;2023-08-20T13:54:08;37.80;61.40
52769;DHT22;40471;44.534;18.644;2023-08-20T13:56:36;37.70;60.90
52769;DHT22;40471;44.534;18.644;2023-08-20T13:59:08;37.50;61.50
52769;DHT22;40471;44.534;18.644;2023-08-20T14:01:34;37.60;60.30
52769;DHT22;40471;44.534;18.644;2023-08-20T14:04:02;37.70;61.00
52769;DHT22;40471;44.534;18.644;2023-08-20T14:06:31;37.70;61.40
52769;DHT22;40471;44.534;18.644;2023-08-20T14:08:56;37.40;62.30
52769;DHT22;40471;44.534;18.644;2023-08-20T14:11:24;37.50;62.70
52769;DHT22;40471;44.534;18.644;2023-08-20T14:13:51;37.60;62.50
52769;DHT22;40471;44.534;18.644;2023-08-20T14:16:16;37.60;62.80
52769;DHT22;40471;44.534;18.644;2023-08-20T14:18:44;37.50;61.50
52769;DHT22;40471;44.534;18.644;2023-08-20T14:21:30;37.40;62.00
52769;DHT22;40471;44.534;18.644;2023-08-20T14:24:15;37.20;61.80
52769;DHT22;40471;44.534;18.644;2023-08-20T14:26:50;37.10;61.50
52769;DHT22;40471;44.534;18.644;2023-08-20T14:29:16;37.10;63.20
52769;DHT22;40471;44.534;18.644;2023-08-20T14:31:41;36.90;63.20
52769;DHT22;40471;44.534;18.644;2023-08-20T14:34:07;36.70;63.60
52769;DHT22;40471;44.534;18.644;2023-08-20T14:36:35;36.60;63.90
52769;DHT22;40471;44.534;18.644;2023-08-20T14:39:05;36.50;64.30
52769;DHT22;40471;44.534;18.644;2023-08-20T14:41:33;36.20;65.10
52769;DHT22;40471;44.534;18.644;2023-08-20T14:44:08;36.10;65.60
52769;DHT22;40471;44.534;18.644;2023-08-20T14:46:36;35.90;64.00
52769;DHT22;40471;44.534;18.644;2023-08-20T14:49:02;35.90;65.50
52769;DHT22;40471;44.534;18.644;2023-08-20T14:51:27;35.80;65.60
52769;DHT22;40471;44.534;18.644;2023-08-20T14:53:53;35.60;65.70
52769;DHT22;40471;44.534;18.644;2023-08-20T14:56:19;35.60;64.40
52769;DHT22;40471;44.534;18.644;2023-08-20T14:58:45;35.60;64.40
52769;DHT22;40471;44.534;18.644;2023-08-20T15:01:13;35.60;64.70
52769;DHT22;40471;44.534;18.644;2023-08-20T15:03:51;35.40;64.60
52769;DHT22;40471;44.534;18.644;2023-08-20T15:06:37;35.30;65.10
52769;DHT22;40471;44.534;18.644;2023-08-20T15:09:11;35.10;65.30
52769;DHT22;40471;44.534;18.644;2023-08-20T15:11:43;35.10;66.20
52769;DHT22;40471;44.534;18.644;2023-08-20T15:14:08;35.00;67.00
52769;DHT22;40471;44.534;18.644;2023-08-20T15:16:34;35.10;66.80
52769;DHT22;40471;44.534;18.644;2023-08-20T15:19:00;35.20;66.30
52769;DHT22;40471;44.534;18.644;2023-08-20T15:21:31;35.30;66.10
52769;DHT22;40471;44.534;18.644;2023-08-20T15:24:02;35.30;65.80
52769;DHT22;40471;44.534;18.644;2023-08-20T15:26:35;35.30;66.50
52769;DHT22;40471;44.534;18.644;2023-08-20T15:29:01;35.40;66.80
52769;DHT22;40471;44.534;18.644;2023-08-20T15:31:32;35.40;67.50